Time;durP1;ratioP1;P1;durP2;ratioP2;P2;SDS_P1;SDS_P2;PMS_P1;PMS_P2;Temp;Humidity;BMP_temperature;BMP_pressure;BME280_temperature;BME280_humidity;BME280_pressure;Samples;Min_cycle;Max_cycle;Signal;HPM_P1;HPM_P2
2022/09/16 00:01:53;;;;;;;6.65;1.50;;;;;;;13.59;77.63;100601.59;5056283;28;20057;-61
2022/09/16 00:04:20;;;;;;;13.65;1.88;;;;;;;13.48;77.66;100600.16;5056109;28;20037;-61
2022/09/16 00:06:46;;;;;;;7.85;1.50;;;;;;;13.48;77.64;100609.97;5056557;28;20049;-61
2022/09/16 00:09:13;;;;;;;8.93;1.63;;;;;;;13.51;77.65;100607.78;5055362;28;20048;-61
2022/09/16 00:11:40;;;;;;;11.15;2.35;;;;;;;13.47;77.60;100613.66;5056432;28;20037;-61
2022/09/16 00:14:06;;;;;;;12.90;2.22;;;;;;;13.49;77.66;100619.63;5056365;28;20387;-61
2022/09/16 00:16:33;;;;;;;11.88;1.92;;;;;;;13.47;77.80;100616.31;5056142;28;20123;-61
2022/09/16 00:19:00;;;;;;;8.52;1.88;;;;;;;13.52;77.30;100621.97;5056349;28;20044;-61
2022/09/16 00:21:28;;;;;;;8.77;1.70;;;;;;;13.49;77.77;100624.97;5056106;28;20044;-61
2022/09/16 00:23:56;;;;;;;8.50;1.77;;;;;;;13.42;76.54;100632.81;5056280;28;20045;-61
2022/09/16 00:26:23;;;;;;;9.63;1.80;;;;;;;13.45;76.13;100627.16;5055937;28;20061;-60
2022/09/16 00:28:50;;;;;;;8.40;1.63;;;;;;;13.34;76.41;100635.53;5055983;28;20041;-62
2022/09/16 00:31:17;;;;;;;6.32;1.50;;;;;;;13.28;77.57;100630.88;5055870;28;20383;-61
2022/09/16 00:33:45;;;;;;;8.10;1.58;;;;;;;13.18;78.49;100637.25;5056014;28;20425;-62
2022/09/16 00:36:15;;;;;;;10.15;1.85;;;;;;;13.16;78.88;100639.25;5056162;28;20052;-60
2022/09/16 00:38:43;;;;;;;9.68;1.55;;;;;;;13.17;78.97;100630.28;5052583;28;20036;-59
2022/09/16 00:41:16;;;;;;;8.48;1.73;;;;;;;13.16;79.06;100630.44;5034978;28;20041;-59
2022/09/16 00:43:49;;;;;;;12.60;1.65;;;;;;;13.06;79.15;100635.94;5035311;28;20148;-60
2022/09/16 00:46:20;;;;;;;8.63;1.70;;;;;;;13.12;79.32;100635.28;5035747;28;20060;-59
2022/09/16 00:48:47;;;;;;;12.20;1.60;;;;;;;13.09;79.10;100635.63;5035927;28;20045;-60
2022/09/16 00:51:15;;;;;;;9.00;1.67;;;;;;;12.95;79.79;100645.19;5035350;28;20049;-60
2022/09/16 00:53:50;;;;;;;7.97;1.73;;;;;;;12.99;79.09;100637.69;5048520;28;20057;-60
2022/09/16 00:56:22;;;;;;;6.82;1.73;;;;;;;12.83;80.60;100634.06;5055470;28;20037;-60
2022/09/16 00:59:01;;;;;;;11.57;1.60;;;;;;;12.91;80.07;100633.19;5055473;28;20552;-60
2022/09/16 01:01:29;;;;;;;12.07;2.00;;;;;;;12.84;80.56;100632.22;5055077;28;20387;-60
2022/09/16 01:04:02;;;;;;;13.75;2.03;;;;;;;12.66;80.92;100640.41;5055146;28;20045;-60
2022/09/16 01:06:31;;;;;;;7.00;1.63;;;;;;;12.77;81.00;100645.41;5055214;28;20063;-61
2022/09/16 01:08:58;;;;;;;10.82;1.90;;;;;;;12.75;81.06;100638.56;5055204;28;20095;-60
2022/09/16 01:11:25;;;;;;;7.43;1.63;;;;;;;12.78;81.02;100632.91;5054781;28;20053;-60
2022/09/16 01:13:52;;;;;;;8.50;1.75;;;;;;;12.74;81.69;100635.09;5055113;28;20036;-60
2022/09/16 01:16:28;;;;;;;11.80;1.70;;;;;;;12.70;81.42;100633.78;5055498;28;20124;-60
2022/09/16 01:19:12;;;;;;;7.57;1.65;;;;;;;12.67;81.94;100628.78;5054931;28;20044;-60
2022/09/16 01:21:48;;;;;;;6.90;1.75;;;;;;;12.71;82.12;100629.25;5054569;28;20059;-61
2022/09/16 01:24:55;;;;;;;13.25;2.03;;;;;;;12.69;82.22;100626.78;5054870;28;20051;-61
2022/09/16 01:30:45;;;;;;;8.43;2.10;;;;;;;12.73;82.53;100629.94;5111112;27;20368;-60
2022/09/16 01:36:30;;;;;;;9.40;1.95;;;;;;;12.66;83.78;100619.97;5070205;28;20364;-61
2022/09/16 01:39:11;;;;;;;9.77;1.90;;;;;;;12.64;83.96;100624.63;5070281;28;20382;-60
2022/09/16 01:42:07;;;;;;;10.77;2.10;;;;;;;12.52;84.22;100609.19;5070032;28;20398;-60
2022/09/16 01:44:57;;;;;;;11.30;2.00;;;;;;;12.63;84.19;100617.63;5050446;28;20051;-61
2022/09/16 01:47:49;;;;;;;12.30;2.28;;;;;;;12.64;83.89;100621.97;5050018;28;20376;-60
2022/09/16 01:50:29;;;;;;;12.48;2.10;;;;;;;12.66;84.03;100619.13;5050171;28;20053;-60
2022/09/16 01:53:24;;;;;;;12.90;3.30;;;;;;;12.65;84.04;100625.47;5068370;28;20044;-60
2022/09/16 01:55:59;;;;;;;11.82;2.10;;;;;;;12.72;83.76;100628.28;5069716;28;20072;-60
2022/09/16 01:58:49;;;;;;;12.75;2.17;;;;;;;12.73;83.83;100635.25;5069585;28;20041;-60
2022/09/16 02:01:24;;;;;;;9.00;1.90;;;;;;;12.68;84.27;100620.63;5069945;28;20124;-60
2022/09/16 02:03:57;;;;;;;8.98;2.00;;;;;;;12.70;84.18;100622.28;5069375;28;20418;-61
2022/09/16 02:06:26;;;;;;;8.80;1.98;;;;;;;12.68;84.11;100620.63;5069635;28;20041;-60
2022/09/16 02:09:01;;;;;;;13.30;2.80;;;;;;;12.78;83.67;100619.59;5069864;28;20483;-60
2022/09/16 02:11:28;;;;;;;13.07;2.60;;;;;;;12.76;83.67;100617.09;5069561;28;20124;-60
2022/09/16 02:16:40;;;;;;;13.43;2.22;;;;;;;12.77;83.89;100601.94;5110496;27;20391;-60
2022/09/16 02:19:14;;;;;;;7.32;2.15;;;;;;;12.85;84.64;100601.94;5111156;28;20058;-60
2022/09/16 02:21:41;;;;;;;8.52;2.00;;;;;;;12.66;85.07;100616.47;5108971;28;20040;-59
2022/09/16 02:24:16;;;;;;;12.95;2.45;;;;;;;12.63;85.62;100601.69;5111192;28;20051;-60
2022/09/16 02:26:48;;;;;;;18.02;2.45;;;;;;;12.52;87.04;100607.38;5110718;28;20047;-60
2022/09/16 02:29:20;;;;;;;8.25;2.30;;;;;;;12.59;88.92;100602.19;5109983;28;20048;-60
2022/09/16 02:31:48;;;;;;;;;;;;;;;12.63;88.36;100606.19;5109807;28;20142;-60
2022/09/16 02:34:23;;;;;;;10.93;2.38;;;;;;;12.61;87.76;100608.19;5110676;28;19926;-61
2022/09/16 02:36:55;;;;;;;13.82;2.30;;;;;;;12.63;88.13;100607.00;5110748;28;20127;-60
2022/09/16 02:39:29;;;;;;;10.95;2.40;;;;;;;12.76;88.33;100613.63;5106838;28;20068;-60
2022/09/16 02:41:58;;;;;;;8.30;2.20;;;;;;;12.73;88.10;100608.63;5091139;28;20051;-60
2022/09/16 02:44:25;;;;;;;10.25;2.20;;;;;;;12.63;88.79;100607.00;5089979;28;20040;-60
2022/09/16 02:47:07;;;;;;;18.27;3.20;;;;;;;12.51;89.96;100603.03;5094609;28;20126;-60
2022/09/16 02:49:56;;;;;;;18.85;2.55;;;;;;;12.59;90.77;100607.53;5126088;28;20397;-60
2022/09/16 02:52:46;;;;;;;18.58;2.60;;;;;;;12.62;89.55;100600.00;5109045;28;20044;-60
2022/09/16 02:55:29;;;;;;;13.48;3.08;;;;;;;12.65;89.26;100601.50;5100777;28;20063;-60
2022/09/16 02:57:55;;;;;;;9.38;2.70;;;;;;;12.69;89.83;100589.50;5083530;28;20048;-61
2022/09/16 03:00:22;;;;;;;12.15;2.70;;;;;;;12.65;89.30;100591.69;5089154;28;20048;-61
2022/09/16 03:02:49;;;;;;;15.07;3.33;;;;;;;12.75;89.18;100595.97;5109225;28;20047;-61
2022/09/16 03:05:16;;;;;;;12.55;3.20;;;;;;;12.73;89.55;100590.81;5125690;28;20043;-61
2022/09/16 03:07:43;;;;;;;15.90;3.25;;;;;;;12.74;89.02;100589.84;5109954;28;20489;-61
2022/09/16 03:10:13;;;;;;;14.18;3.00;;;;;;;12.77;88.65;100591.31;5110017;28;20104;-61
2022/09/16 03:12:55;;;;;;;18.83;3.55;;;;;;;12.75;88.78;100591.50;5107667;28;20488;-61
2022/09/16 03:15:49;;;;;;;8.07;3.05;;;;;;;12.60;89.68;100594.03;5109674;28;20127;-61
2022/09/16 03:18:46;;;;;;;15.20;3.30;;;;;;;12.53;90.05;100593.03;5107254;28;20134;-61
2022/09/16 03:21:28;;;;;;;12.00;2.92;;;;;;;12.46;90.02;100587.59;5109855;28;20040;-61
2022/09/16 03:27:04;;;;;;;15.98;3.33;;;;;;;12.48;90.36;100587.44;5111161;27;20379;-59
2022/09/16 03:29:38;;;;;;;11.23;3.13;;;;;;;12.46;90.74;100598.22;5110885;28;20043;-60
2022/09/16 03:32:26;;;;;;;15.57;3.88;;;;;;;12.55;90.54;100592.88;5109947;28;20400;-59
2022/09/16 03:35:00;;;;;;;9.70;3.10;;;;;;;12.52;90.18;100596.72;5109715;28;20070;-59
2022/09/16 03:37:33;;;;;;;12.57;3.40;;;;;;;12.52;90.16;100599.38;5109704;28;20046;-62
2022/09/16 03:40:08;;;;;;;16.90;3.53;;;;;;;12.44;90.29;100594.91;5111136;28;20066;-59
2022/09/16 03:42:38;;;;;;;18.17;3.65;;;;;;;12.39;90.58;100596.44;5097020;28;20088;-60
2022/09/16 03:45:06;;;;;;;11.33;3.70;;;;;;;12.46;89.85;100589.41;5110880;28;20048;-60
2022/09/16 03:47:33;;;;;;;14.02;3.53;;;;;;;12.21;90.60;100596.63;5109979;28;20043;-60
2022/09/16 03:50:00;;;;;;;13.52;3.28;;;;;;;12.15;91.09;100599.94;5110575;28;20040;-60
2022/09/16 03:52:26;;;;;;;14.48;3.50;;;;;;;12.17;91.08;100598.78;5110582;28;20093;-60
2022/09/16 03:54:53;;;;;;;13.70;3.22;;;;;;;12.24;91.19;100590.94;5110296;28;20146;-60
2022/09/16 03:57:20;;;;;;;14.98;3.67;;;;;;;12.23;90.90;100582.13;5110523;28;20048;-60
2022/09/16 03:59:46;;;;;;;19.67;3.20;;;;;;;12.24;90.87;100581.16;5110604;28;20048;-60
2022/09/16 04:02:13;;;;;;;15.32;3.30;;;;;;;12.11;91.11;100583.47;5109193;28;20386;-60
2022/09/16 04:04:39;;;;;;;14.50;3.53;;;;;;;12.07;92.06;100577.66;5108451;28;20465;-60
2022/09/16 04:07:06;;;;;;;14.13;3.38;;;;;;;12.10;91.73;100574.69;5109739;28;20489;-60
2022/09/16 04:09:33;;;;;;;16.05;3.30;;;;;;;12.25;90.62;100574.00;5110068;28;20044;-60
2022/09/16 04:12:00;;;;;;;10.32;3.20;;;;;;;12.30;90.73;100566.34;5110217;28;20047;-60
2022/09/16 04:14:27;;;;;;;12.30;3.22;;;;;;;12.31;90.85;100568.00;5108992;28;20562;-62
2022/09/16 04:16:54;;;;;;;13.15;3.50;;;;;;;12.27;90.39;100569.34;5109553;28;20051;-61
2022/09/16 04:19:20;;;;;;;10.25;3.15;;;;;;;12.17;92.52;100566.88;5109994;28;20044;-61
2022/09/16 04:21:47;;;;;;;13.73;3.33;;;;;;;12.18;92.96;100567.69;5109637;28;20062;-61
2022/09/16 04:24:14;;;;;;;12.93;3.38;;;;;;;12.09;94.12;100569.53;5109431;28;20451;-62
2022/09/16 04:26:41;;;;;;;16.27;3.10;;;;;;;12.16;93.60;100567.03;5109927;28;20040;-61
2022/09/16 04:29:08;;;;;;;14.57;3.67;;;;;;;12.15;93.77;100574.19;5108774;28;20516;-61
2022/09/16 04:31:35;;;;;;;19.15;3.88;;;;;;;12.17;93.44;100574.00;5109363;28;20044;-61
2022/09/16 04:34:03;;;;;;;10.20;3.15;;;;;;;12.22;93.58;100577.00;5108343;28;20044;-61
2022/09/16 04:36:31;;;;;;;15.13;3.85;;;;;;;12.27;93.99;100570.16;5103988;28;20436;-61
2022/09/16 04:38:58;;;;;;;12.77;3.45;;;;;;;12.31;93.20;100577.81;5096175;28;20048;-61
2022/09/16 04:41:27;;;;;;;18.88;3.95;;;;;;;12.24;93.35;100581.16;5094847;28;20063;-59
2022/09/16 04:43:57;;;;;;;14.07;4.35;;;;;;;12.25;94.48;100592.63;5093806;28;20036;-60
2022/09/16 04:46:25;;;;;;;14.07;3.15;;;;;;;12.29;94.82;100593.94;5094776;28;20085;-60
2022/09/16 04:48:54;;;;;;;19.10;4.15;;;;;;;12.44;94.40;100581.63;5095513;28;20036;-60
2022/09/16 04:51:22;;;;;;;15.77;4.13;;;;;;;12.48;91.90;100584.75;5095765;28;20044;-60
2022/09/16 04:53:49;;;;;;;15.90;3.88;;;;;;;12.39;92.93;100583.13;5095795;28;20040;-60
2022/09/16 04:56:19;;;;;;;13.70;4.10;;;;;;;12.39;93.39;100581.28;5095351;28;20032;-60
2022/09/16 04:58:50;;;;;;;12.88;4.25;;;;;;;12.39;92.30;100583.13;5095599;28;20064;-61
2022/09/16 05:01:19;;;;;;;19.58;4.03;;;;;;;12.38;91.74;100579.63;5095668;28;20131;-60
2022/09/16 05:03:48;;;;;;;16.13;3.90;;;;;;;12.39;92.44;100583.13;5094865;28;20036;-60
2022/09/16 05:06:18;;;;;;;20.30;5.18;;;;;;;12.27;89.66;100572.00;5095180;28;20393;-60
2022/09/16 05:08:47;;;;;;;18.60;3.70;;;;;;;12.21;90.47;100573.50;5094643;28;20048;-61
2022/09/16 05:11:17;;;;;;;18.98;4.15;;;;;;;12.27;90.05;100577.31;5095746;28;20052;-61
2022/09/16 05:13:44;;;;;;;17.02;3.80;;;;;;;12.20;90.92;100573.66;5093883;28;20048;-61
2022/09/16 05:16:14;;;;;;;16.52;3.35;;;;;;;12.21;88.96;100568.19;5095528;28;20090;-61
2022/09/16 05:18:43;;;;;;;22.55;3.72;;;;;;;12.21;89.27;100564.72;5095056;28;20125;-61
2022/09/16 05:21:14;;;;;;;19.58;4.18;;;;;;;12.16;90.56;100572.34;5094733;28;20048;-61
2022/09/16 05:23:41;;;;;;;;;;;;;;;12.20;89.01;100571.84;5095680;28;20497;-61
2022/09/16 05:26:16;;;;;;;13.75;3.08;;;;;;;12.11;89.26;100564.88;5094763;28;20323;-60
2022/09/16 05:28:42;;;;;;;30.38;5.18;;;;;;;12.18;89.76;100571.19;5093939;28;20066;-60
2022/09/16 05:31:12;;;;;;;16.30;3.10;;;;;;;12.18;89.54;100575.66;5095171;28;20106;-60
2022/09/16 05:33:41;;;;;;;11.45;2.97;;;;;;;12.12;88.71;100579.03;5095079;28;20084;-61
2022/09/16 05:36:11;;;;;;;15.60;3.05;;;;;;;12.13;87.72;100584.13;5094309;28;20085;-60
2022/09/16 05:38:38;;;;;;;14.15;3.17;;;;;;;12.13;88.29;100584.13;5094941;28;20066;-60
2022/09/16 05:41:06;;;;;;;14.93;3.25;;;;;;;12.21;87.38;100580.66;5094317;28;20443;-61
2022/09/16 05:43:36;;;;;;;11.07;3.10;;;;;;;12.12;88.36;100587.00;5093126;28;20562;-60
2022/09/16 05:46:04;;;;;;;12.88;2.65;;;;;;;12.18;88.39;100586.31;5093963;28;20040;-61
2022/09/16 05:48:32;;;;;;;14.05;2.65;;;;;;;12.17;87.03;100587.28;5093490;28;20048;-60
2022/09/16 05:51:03;;;;;;;16.77;2.95;;;;;;;12.20;87.80;100585.13;5093670;28;20051;-60
2022/09/16 05:53:31;;;;;;;15.85;3.55;;;;;;;12.12;88.73;100590.47;5093668;28;20127;-61
2022/09/16 05:56:04;;;;;;;17.67;3.25;;;;;;;12.26;87.50;100586.28;5094132;28;20149;-61
2022/09/16 05:58:32;;;;;;;15.25;3.00;;;;;;;12.21;86.56;100585.97;5092993;28;20048;-61
2022/09/16 06:01:06;;;;;;;19.92;3.22;;;;;;;12.21;86.49;100578.00;5094393;28;20444;-61
2022/09/16 06:03:34;;;;;;;11.65;2.78;;;;;;;12.16;86.19;100589.13;5092415;28;20044;-61
2022/09/16 06:06:03;;;;;;;10.18;2.78;;;;;;;12.02;86.26;100593.28;5093771;28;20039;-61
2022/09/16 06:08:32;;;;;;;12.63;2.63;;;;;;;12.02;86.45;100592.47;5094387;28;20055;-61
2022/09/16 06:11:01;;;;;;;10.07;2.63;;;;;;;12.14;86.63;100590.31;5093967;28;20047;-61
2022/09/16 06:13:28;;;;;;;11.85;2.50;;;;;;;12.05;86.66;100592.13;5094320;28;20055;-61
2022/09/16 06:15:55;;;;;;;10.30;2.42;;;;;;;12.18;86.75;100594.28;5092651;28;20441;-61
2022/09/16 06:18:24;;;;;;;12.52;2.58;;;;;;;12.18;85.94;100592.44;5093037;28;20036;-61
2022/09/16 06:20:51;;;;;;;17.00;2.90;;;;;;;12.35;85.31;100585.28;5093511;28;20439;-61
2022/09/16 06:23:19;;;;;;;13.98;2.88;;;;;;;12.33;83.61;100595.25;5093851;28;20043;-61
2022/09/16 06:25:46;;;;;;;14.18;2.67;;;;;;;12.28;84.09;100594.94;5093159;28;20052;-61
2022/09/16 06:28:14;;;;;;;9.80;2.78;;;;;;;12.38;84.91;100586.78;5092904;28;20528;-61
2022/09/16 06:30:40;;;;;;;18.50;2.80;;;;;;;12.38;84.86;100592.91;5092742;28;20468;-61
2022/09/16 06:33:08;;;;;;;15.70;2.65;;;;;;;12.47;83.89;100597.22;5093543;28;20051;-61
2022/09/16 06:35:34;;;;;;;10.68;2.65;;;;;;;12.50;85.51;100596.06;5093461;28;20036;-61
2022/09/16 06:38:01;;;;;;;11.25;2.33;;;;;;;12.53;84.20;100597.53;5093677;28;20047;-61
2022/09/16 06:40:28;;;;;;;16.75;2.80;;;;;;;12.53;83.52;100587.72;5093656;28;20089;-61
2022/09/16 06:42:54;;;;;;;11.90;2.90;;;;;;;12.47;83.50;100585.75;5092216;28;20089;-60
2022/09/16 06:45:28;;;;;;;14.20;2.60;;;;;;;12.45;83.71;100585.91;5092090;28;20036;-61
2022/09/16 06:47:58;;;;;;;11.18;2.60;;;;;;;12.47;83.82;100581.25;5092880;28;20036;-61
2022/09/16 06:50:25;;;;;;;10.15;2.50;;;;;;;12.47;83.77;100578.59;5093099;28;20040;-60
2022/09/16 06:52:51;;;;;;;18.52;3.03;;;;;;;12.40;83.53;100585.59;5093104;28;20509;-61
2022/09/16 06:55:18;;;;;;;8.77;2.58;;;;;;;12.48;84.23;100584.75;5092034;28;20443;-61
2022/09/16 06:57:45;;;;;;;9.82;2.33;;;;;;;12.51;83.00;100584.41;5092573;28;20448;-61
2022/09/16 07:00:13;;;;;;;11.30;2.35;;;;;;;12.55;82.91;100577.75;5092999;28;20408;-60
2022/09/16 07:02:39;;;;;;;13.77;3.13;;;;;;;12.65;82.92;100578.38;5093225;28;20048;-60
2022/09/16 07:05:07;;;;;;;13.10;2.40;;;;;;;12.68;82.63;100580.72;5091765;28;20054;-60
2022/09/16 07:07:35;;;;;;;15.93;3.05;;;;;;;12.70;82.31;100585.00;5089868;28;20051;-60
2022/09/16 07:10:02;;;;;;;9.23;2.50;;;;;;;12.67;82.55;100583.53;5090543;28;20043;-60
2022/09/16 07:12:28;;;;;;;12.63;2.47;;;;;;;12.64;82.14;100591.84;5092799;28;20063;-60
2022/09/16 07:14:55;;;;;;;12.43;2.80;;;;;;;12.65;83.04;100586.38;5092879;28;20040;-59
2022/09/16 07:17:25;;;;;;;14.05;2.85;;;;;;;12.60;83.66;100591.38;5092944;28;20038;-60
2022/09/16 07:19:52;;;;;;;12.23;2.97;;;;;;;12.67;82.64;100595.00;5088731;28;20391;-60
2022/09/16 07:22:19;;;;;;;13.95;3.35;;;;;;;12.58;83.79;100598.69;5082940;28;20056;-56
2022/09/16 07:24:46;;;;;;;11.00;2.53;;;;;;;12.83;83.72;100588.78;5093064;28;20052;-56
2022/09/16 07:27:13;;;;;;;13.43;2.80;;;;;;;12.94;82.51;100603.56;5083917;28;20043;-57
2022/09/16 07:29:40;;;;;;;14.63;2.58;;;;;;;13.05;81.51;100602.34;5087012;28;20055;-56
2022/09/16 07:32:07;;;;;;;14.15;3.00;;;;;;;13.03;82.57;100604.38;5093808;28;20035;-56
2022/09/16 07:34:33;;;;;;;17.77;2.78;;;;;;;13.07;81.52;100608.34;5093380;28;20413;-56
2022/09/16 07:37:00;;;;;;;14.32;2.80;;;;;;;12.93;82.94;100609.88;5078864;28;20036;-56
2022/09/16 07:39:27;;;;;;;14.82;2.80;;;;;;;13.12;81.73;100611.31;5093321;28;20054;-57
2022/09/16 07:41:53;;;;;;;11.50;2.80;;;;;;;13.08;82.43;100610.00;5101069;28;20401;-55
2022/09/16 07:44:20;;;;;;;13.45;3.55;;;;;;;13.12;82.06;100613.16;5097224;28;20047;-55
2022/09/16 07:46:50;;;;;;;18.80;4.65;;;;;;;13.09;82.45;100608.97;5106575;28;20047;-55
2022/09/16 07:49:16;;;;;;;16.30;4.65;;;;;;;13.10;82.34;100610.66;5097226;28;20050;-56
2022/09/16 07:51:43;;;;;;;11.50;2.70;;;;;;;13.27;80.45;100611.41;5099237;28;20408;-56
2022/09/16 07:54:14;;;;;;;9.70;2.58;;;;;;;13.52;80.13;100616.63;5101057;28;20512;-55
2022/09/16 07:56:43;;;;;;;13.70;3.00;;;;;;;13.51;79.14;100614.94;5100506;28;20032;-55
2022/09/16 07:59:12;;;;;;;10.18;2.92;;;;;;;13.53;79.22;100612.94;5100929;28;20441;-56
2022/09/16 08:01:39;;;;;;;11.07;3.10;;;;;;;13.71;79.58;100623.31;5099668;28;20056;-56
2022/09/16 08:04:08;;;;;;;10.88;2.90;;;;;;;13.76;78.01;100635.09;5098029;28;20047;-58
2022/09/16 08:06:38;;;;;;;9.63;2.80;;;;;;;13.88;77.23;100626.69;5096986;28;20052;-55
2022/09/16 08:09:04;;;;;;;17.25;2.78;;;;;;;13.90;76.51;100633.50;5095044;28;20082;-62
2022/09/16 08:11:36;;;;;;;13.60;2.97;;;;;;;14.06;76.37;100626.38;5094828;28;20044;-62
2022/09/16 08:14:02;;;;;;;9.93;2.10;;;;;;;14.14;75.21;100635.16;5090373;28;20045;-63
2022/09/16 08:16:29;;;;;;;12.18;2.40;;;;;;;14.37;73.77;100639.59;5093356;28;20035;-64
2022/09/16 08:18:57;;;;;;;9.45;2.30;;;;;;;14.52;72.97;100639.66;5096512;28;20043;-63
2022/09/16 08:21:28;;;;;;;11.25;2.15;;;;;;;14.39;72.99;100645.63;5096115;28;20485;-62
2022/09/16 08:23:56;;;;;;;12.85;2.33;;;;;;;14.41;72.37;100632.91;5096088;28;20048;-63
2022/09/16 08:26:23;;;;;;;5.97;1.70;;;;;;;14.43;71.67;100640.75;5103584;28;20048;-58
2022/09/16 08:28:50;;;;;;;10.20;2.22;;;;;;;14.59;72.34;100635.28;5098302;28;20040;-59
2022/09/16 08:31:30;;;;;;;12.57;1.85;;;;;;;14.53;71.21;100638.63;5095148;28;20032;-49
2022/09/16 08:33:57;;;;;;;9.07;2.00;;;;;;;14.37;72.60;100650.28;5089747;28;20053;-48
2022/09/16 08:36:25;;;;;;;14.25;2.00;;;;;;;14.51;71.66;100646.81;5096389;28;20051;-63
2022/09/16 08:38:54;;;;;;;11.00;1.77;;;;;;;14.39;72.45;100634.94;5093854;28;20040;-63
2022/09/16 08:41:40;;;;;;;10.85;2.00;;;;;;;14.39;71.13;100643.75;5108705;28;20455;-56
2022/09/16 08:47:45;;;;;;;12.63;2.22;;;;;;;15.24;68.93;100633.66;5092051;27;20747;-56
2022/09/16 08:50:21;;;;;;;11.43;2.03;;;;;;;15.40;67.70;100637.94;5090837;28;20058;-63
2022/09/16 08:52:50;;;;;;;10.95;1.88;;;;;;;15.26;67.00;100634.31;5098255;28;20043;-63
2022/09/16 08:55:23;;;;;;;8.30;1.60;;;;;;;15.22;65.48;100632.19;5101496;28;20132;-64
2022/09/16 08:58:09;;;;;;;7.50;1.50;;;;;;;15.05;66.04;100643.09;5104905;28;20066;-64
2022/09/16 09:00:37;;;;;;;9.20;1.80;;;;;;;15.06;65.69;100641.22;5101368;28;20049;-64
2022/09/16 09:03:33;;;;;;;11.90;1.90;;;;;;;15.03;66.61;100644.28;5094082;28;20496;-64
2022/09/16 09:06:03;;;;;;;9.63;1.88;;;;;;;15.15;66.78;100638.28;5065181;28;20041;-65
2022/09/16 09:12:09;;;;;;;10.77;2.13;;;;;;;15.57;65.27;100646.56;5105564;27;20408;-64
2022/09/16 09:14:53;;;;;;;8.30;1.85;;;;;;;15.45;64.92;100645.41;5123744;27;20096;-64
2022/09/16 09:17:28;;;;;;;11.90;2.00;;;;;;;15.74;65.13;100649.88;5106455;28;20052;-65
2022/09/16 09:23:07;;;;;;;10.43;1.70;;;;;;;18.21;55.43;100648.53;5098822;27;20367;-58
2022/09/16 09:31:45;;;;;;;5.70;1.30;;;;;;;18.38;53.19;100656.97;5088432;27;20375;-58
2022/09/16 09:34:42;;;;;;;8.75;1.60;;;;;;;17.55;56.33;100649.22;5086407;28;20044;-60
2022/09/16 09:37:48;;;;;;;8.52;1.48;;;;;;;16.98;57.10;100646.72;5079430;28;20051;-62
2022/09/16 09:40:30;;;;;;;6.57;1.30;;;;;;;16.35;59.63;100648.56;5082864;28;20135;-63
2022/09/16 09:43:15;;;;;;;;;;;;;;;17.07;58.35;100647.38;5091486;28;20185;-63
2022/09/16 09:46:07;;;;;;;15.02;1.63;;;;;;;18.20;53.10;100642.31;5088262;28;20019;-63
2022/09/16 09:48:40;;;;;;;9.30;1.80;;;;;;;17.13;56.15;100633.19;5091550;28;20040;-63
2022/09/16 09:51:20;;;;;;;11.13;2.08;;;;;;;18.77;53.32;100633.75;5067943;28;20371;-63
2022/09/16 09:53:52;;;;;;;11.27;1.50;;;;;;;17.97;55.19;100634.69;5095132;28;20147;-49
2022/09/16 09:56:26;;;;;;;10.25;1.83;;;;;;;17.36;57.48;100637.41;5090770;28;20099;-61
2022/09/16 09:59:04;;;;;;;8.48;1.70;;;;;;;16.84;56.25;100632.41;5089534;28;20052;-62
2022/09/16 10:01:31;;;;;;;8.48;1.60;;;;;;;16.49;57.10;100619.00;5083708;28;20055;-61
2022/09/16 10:03:59;;;;;;;7.13;1.30;;;;;;;16.18;59.72;100629.28;5093227;28;20044;-61
2022/09/16 10:06:32;;;;;;;11.73;1.85;;;;;;;15.89;60.24;100623.06;5060356;28;20514;-62
2022/09/16 10:08:58;;;;;;;16.58;2.25;;;;;;;15.68;64.47;100624.69;5082923;28;20051;-61
2022/09/16 10:11:30;;;;;;;10.38;1.33;;;;;;;15.23;65.98;100629.34;5090453;28;20044;-64
2022/09/16 10:13:58;;;;;;;23.45;3.17;;;;;;;15.15;73.82;100646.31;5079667;28;20055;-61
2022/09/16 10:16:29;;;;;;;18.65;3.15;;;;;;;14.83;73.73;100644.03;5087407;28;20563;-61
2022/09/16 10:19:07;;;;;;;11.18;1.98;;;;;;;14.37;77.39;100639.59;5086964;28;20079;-60
2022/09/16 10:21:46;;;;;;;11.40;1.40;;;;;;;13.99;78.45;100634.28;5088938;28;20043;-62
2022/09/16 10:24:34;;;;;;;8.30;1.75;;;;;;;14.11;84.40;100635.50;5089884;28;20056;-60
2022/09/16 10:27:21;;;;;;;13.90;2.33;;;;;;;14.29;82.94;100635.19;5091042;28;20383;-67
2022/09/16 10:30:01;;;;;;;16.20;1.67;;;;;;;14.79;82.56;100638.22;5087712;28;20048;-61
2022/09/16 10:32:28;;;;;;;7.68;1.70;;;;;;;14.50;81.29;100639.00;5097521;28;20516;-62
2022/09/16 10:34:55;;;;;;;18.83;2.22;;;;;;;14.34;86.11;100640.00;5052664;28;20145;-61
2022/09/16 10:37:26;;;;;;;9.45;1.75;;;;;;;14.25;83.56;100641.06;5091798;28;20056;-61
2022/09/16 10:39:56;;;;;;;13.33;1.73;;;;;;;14.07;81.57;100641.38;5075506;28;20032;-61
2022/09/16 10:42:25;;;;;;;5.28;1.52;;;;;;;13.87;82.74;100638.38;5080558;28;20748;-65
2022/09/16 10:44:55;;;;;;;16.23;2.17;;;;;;;13.76;84.45;100629.78;5078147;28;20041;-61
2022/09/16 10:47:25;;;;;;;10.77;1.63;;;;;;;13.72;77.14;100625.81;5074551;28;20036;-61
2022/09/16 10:49:56;;;;;;;9.15;1.48;;;;;;;13.53;78.85;100619.09;5072375;28;20037;-61
2022/09/16 10:52:28;;;;;;;8.00;1.65;;;;;;;13.60;85.41;100613.91;5070278;28;20040;-61
2022/09/16 10:54:55;;;;;;;11.02;1.52;;;;;;;13.72;82.87;100627.66;5067944;28;20147;-61
2022/09/16 10:57:28;;;;;;;7.50;1.70;;;;;;;13.74;81.98;100622.97;5084781;28;20089;-61
2022/09/16 10:59:56;;;;;;;10.50;2.10;;;;;;;13.71;85.56;100618.81;5073211;28;20123;-61
2022/09/16 11:03:03;;;;;;;12.18;1.85;;;;;;;13.80;91.42;100624.91;5065428;28;20036;-60
2022/09/16 11:06:03;;;;;;;12.82;1.70;;;;;;;13.91;90.77;100634.34;5045772;28;20043;-61
2022/09/16 11:08:56;;;;;;;10.45;1.73;;;;;;;14.45;85.38;100628.88;5081404;28;20045;-62
2022/09/16 11:11:53;;;;;;;8.07;1.60;;;;;;;14.33;85.43;100625.78;5089259;28;20405;-61
2022/09/16 11:17:49;;;;;;;11.25;1.63;;;;;;;14.43;84.62;100614.88;5098991;28;20348;-60
2022/09/16 11:20:43;;;;;;;11.63;1.90;;;;;;;14.36;84.90;100608.59;5097693;28;20054;-61
2022/09/16 11:23:31;;;;;;;7.00;1.70;;;;;;;14.33;82.64;100614.28;5088943;28;20070;-61
2022/09/16 11:26:12;;;;;;;7.40;1.98;;;;;;;14.39;82.42;100614.41;5105917;28;20065;-60
2022/09/16 11:28:52;;;;;;;5.95;1.85;;;;;;;15.10;76.74;100607.81;5085130;28;20055;-61
2022/09/16 11:31:34;;;;;;;5.38;1.63;;;;;;;15.81;77.32;100615.16;5105562;28;20127;-61
2022/09/16 11:34:17;;;;;;;3.40;1.25;;;;;;;16.64;74.66;100620.75;5096589;28;20123;-60
2022/09/16 11:37:09;;;;;;;9.73;1.75;;;;;;;16.58;72.59;100621.53;5087696;28;20043;-60
2022/09/16 11:40:09;;;;;;;9.32;1.83;;;;;;;15.99;74.88;100628.94;5072405;28;20044;-62
2022/09/16 11:42:42;;;;;;;9.43;1.80;;;;;;;15.50;76.01;100633.13;5078268;28;20086;-61
2022/09/16 11:45:43;;;;;;;8.63;1.70;;;;;;;15.16;74.75;100631.09;5080066;28;20397;-60
2022/09/16 11:48:27;;;;;;;10.85;1.17;;;;;;;14.97;70.94;100637.81;5079098;28;20128;-61
2022/09/16 11:51:24;;;;;;;8.70;1.30;;;;;;;14.49;74.01;100672.84;5088901;28;20037;-59
2022/09/16 11:56:49;;;;;;;6.25;1.30;;;;;;;13.37;80.81;100678.66;5108660;27;20396;-50
2022/09/16 12:02:02;;;;;;;7.07;1.40;;;;;;;12.94;82.32;100691.44;5102533;27;20374;-62
2022/09/16 12:04:36;;;;;;;9.23;1.40;;;;;;;12.75;83.95;100694.47;5086821;28;20052;-61
2022/09/16 12:07:17;;;;;;;6.10;1.38;;;;;;;12.55;86.38;100694.84;5088406;28;20118;-61
2022/09/16 12:09:50;;;;;;;6.65;1.60;;;;;;;12.54;85.42;100684.38;5085937;28;20052;-61
2022/09/16 12:12:21;;;;;;;9.20;1.40;;;;;;;12.28;84.03;100672.91;5086674;28;20048;-61
2022/09/16 12:14:58;;;;;;;8.73;1.60;;;;;;;12.29;87.94;100681.69;5098205;28;20618;-61
2022/09/16 12:17:31;;;;;;;6.22;1.40;;;;;;;12.37;86.88;100679.06;5076318;28;20055;-61
2022/09/16 12:20:03;;;;;;;6.97;1.58;;;;;;;12.48;90.82;100676.03;5086661;28;20040;-63
2022/09/16 12:22:43;;;;;;;10.90;1.70;;;;;;;12.72;88.65;100658.38;5099944;28;20126;-61